sensor_id;sensor_type;location;lat;lon;timestamp;pressure;altitude;pressure_sealevel;temperature;humidity
28606;BME280;46498;49.968;7.754;2023-01-30T00:00:04;97581.00;;;-0.87;100.00
28606;BME280;46498;49.968;7.754;2023-01-30T00:05:06;97583.00;;;-0.90;100.00
28606;BME280;46498;49.968;7.754;2023-01-30T00:10:08;97577.00;;;-0.88;100.00
28606;BME280;46498;49.968;7.754;2023-01-30T00:15:09;97562.00;;;-0.94;100.00
28606;BME280;46498;49.968;7.754;2023-01-30T00:20:10;97546.00;;;-0.89;100.00
28606;BME280;46498;49.968;7.754;2023-01-30T00:25:11;97533.00;;;-0.83;100.00
28606;BME280;46498;49.968;7.754;2023-01-30T00:30:13;97492.00;;;-0.98;100.00
28606;BME280;46498;49.968;7.754;2023-01-30T00:35:14;97484.00;;;-1.03;100.00
28606;BME280;46498;49.968;7.754;2023-01-30T00:40:15;97484.00;;;-0.96;100.00
28606;BME280;46498;49.968;7.754;2023-01-30T00:45:17;97490.00;;;-0.97;100.00
28606;BME280;46498;49.968;7.754;2023-01-30T00:50:36;97476.00;;;-1.01;100.00
28606;BME280;46498;49.968;7.754;2023-01-30T00:55:45;97493.00;;;-1.02;100.00
28606;BME280;46498;49.968;7.754;2023-01-30T01:00:46;97483.00;;;-1.05;100.00
28606;BME280;46498;49.968;7.754;2023-01-30T01:05:47;97468.00;;;-1.04;100.00
28606;BME280;46498;49.968;7.754;2023-01-30T01:10:48;97464.00;;;-0.98;100.00
28606;BME280;46498;49.968;7.754;2023-01-30T01:15:49;97466.00;;;-1.00;100.00
28606;BME280;46498;49.968;7.754;2023-01-30T01:20:50;97446.00;;;-1.08;100.00
28606;BME280;46498;49.968;7.754;2023-01-30T01:25:51;97432.00;;;-1.10;100.00
28606;BME280;46498;49.968;7.754;2023-01-30T01:30:51;97437.00;;;-0.99;100.00
28606;BME280;46498;49.968;7.754;2023-01-30T01:35:56;97429.00;;;-1.00;100.00
28606;BME280;46498;49.968;7.754;2023-01-30T01:40:57;97422.00;;;-1.10;100.00
28606;BME280;46498;49.968;7.754;2023-01-30T01:46:14;97412.00;;;-1.11;100.00
28606;BME280;46498;49.968;7.754;2023-01-30T01:51:30;97415.00;;;-0.90;100.00
28606;BME280;46498;49.968;7.754;2023-01-30T01:56:34;97403.00;;;-0.89;100.00
28606;BME280;46498;49.968;7.754;2023-01-30T02:01:39;97401.00;;;-0.77;100.00
28606;BME280;46498;49.968;7.754;2023-01-30T02:06:41;97392.00;;;-0.76;100.00
28606;BME280;46498;49.968;7.754;2023-01-30T02:11:48;97372.00;;;-0.68;100.00
28606;BME280;46498;49.968;7.754;2023-01-30T02:16:50;97374.00;;;-0.60;100.00
28606;BME280;46498;49.968;7.754;2023-01-30T02:30:07;97367.00;;;-0.48;100.00
28606;BME280;46498;49.968;7.754;2023-01-30T02:35:36;97369.00;;;-0.47;100.00
28606;BME280;46498;49.968;7.754;2023-01-30T02:41:23;97366.00;;;-0.37;100.00
28606;BME280;46498;49.968;7.754;2023-01-30T02:46:56;97358.00;;;-0.28;100.00
28606;BME280;46498;49.968;7.754;2023-01-30T02:52:00;97371.00;;;-0.23;100.00
28606;BME280;46498;49.968;7.754;2023-01-30T02:57:03;97366.00;;;-0.19;100.00
28606;BME280;46498;49.968;7.754;2023-01-30T03:10:37;97351.00;;;0.04;100.00
28606;BME280;46498;49.968;7.754;2023-01-30T03:15:53;97353.00;;;0.02;100.00
28606;BME280;46498;49.968;7.754;2023-01-30T03:20:55;97353.00;;;0.12;100.00
28606;BME280;46498;49.968;7.754;2023-01-30T03:25:57;97326.00;;;0.15;100.00
28606;BME280;46498;49.968;7.754;2023-01-30T03:30:58;97341.00;;;0.14;100.00
28606;BME280;46498;49.968;7.754;2023-01-30T03:35:59;97349.00;;;0.24;100.00
28606;BME280;46498;49.968;7.754;2023-01-30T03:41:02;97365.00;;;0.29;100.00
28606;BME280;46498;49.968;7.754;2023-01-30T03:46:04;97351.00;;;0.34;100.00
28606;BME280;46498;49.968;7.754;2023-01-30T03:51:05;97331.00;;;0.32;100.00
28606;BME280;46498;49.968;7.754;2023-01-30T03:56:05;97327.00;;;0.34;100.00
28606;BME280;46498;49.968;7.754;2023-01-30T04:01:07;97322.00;;;0.34;100.00
28606;BME280;46498;49.968;7.754;2023-01-30T04:06:08;97325.00;;;0.45;100.00
28606;BME280;46498;49.968;7.754;2023-01-30T04:11:09;97326.00;;;0.42;100.00
28606;BME280;46498;49.968;7.754;2023-01-30T04:16:22;97315.00;;;0.52;100.00
28606;BME280;46498;49.968;7.754;2023-01-30T04:22:54;97316.00;;;0.49;100.00
28606;BME280;46498;49.968;7.754;2023-01-30T04:27:56;97303.00;;;0.48;100.00
28606;BME280;46498;49.968;7.754;2023-01-30T04:33:04;97289.00;;;0.53;100.00
28606;BME280;46498;49.968;7.754;2023-01-30T04:38:04;97288.00;;;0.48;100.00
28606;BME280;46498;49.968;7.754;2023-01-30T04:43:06;97264.00;;;0.55;100.00
28606;BME280;46498;49.968;7.754;2023-01-30T04:49:40;97255.00;;;0.55;100.00
28606;BME280;46498;49.968;7.754;2023-01-30T04:54:41;97259.00;;;0.61;100.00
28606;BME280;46498;49.968;7.754;2023-01-30T04:59:42;97258.00;;;0.64;100.00
28606;BME280;46498;49.968;7.754;2023-01-30T05:04:44;97260.00;;;0.70;100.00
28606;BME280;46498;49.968;7.754;2023-01-30T05:09:45;97259.00;;;0.68;100.00
28606;BME280;46498;49.968;7.754;2023-01-30T05:14:46;97259.00;;;0.66;100.00
28606;BME280;46498;49.968;7.754;2023-01-30T05:19:47;97238.00;;;0.70;100.00
28606;BME280;46498;49.968;7.754;2023-01-30T05:24:48;97239.00;;;0.75;100.00
28606;BME280;46498;49.968;7.754;2023-01-30T05:29:49;97254.00;;;0.75;100.00
28606;BME280;46498;49.968;7.754;2023-01-30T05:34:49;97236.00;;;0.46;100.00
28606;BME280;46498;49.968;7.754;2023-01-30T05:39:50;97226.00;;;0.35;100.00
28606;BME280;46498;49.968;7.754;2023-01-30T05:44:51;97217.00;;;0.41;100.00
28606;BME280;46498;49.968;7.754;2023-01-30T05:49:52;97206.00;;;0.44;100.00
28606;BME280;46498;49.968;7.754;2023-01-30T05:54:53;97199.00;;;0.45;100.00
28606;BME280;46498;49.968;7.754;2023-01-30T05:59:53;97196.00;;;0.48;100.00
28606;BME280;46498;49.968;7.754;2023-01-30T06:04:54;97196.00;;;0.27;100.00
28606;BME280;46498;49.968;7.754;2023-01-30T06:09:55;97190.00;;;-0.05;100.00
28606;BME280;46498;49.968;7.754;2023-01-30T06:14:56;97192.00;;;-0.24;100.00
28606;BME280;46498;49.968;7.754;2023-01-30T06:19:58;97201.00;;;-0.27;100.00
28606;BME280;46498;49.968;7.754;2023-01-30T06:24:58;97214.00;;;-0.14;100.00
28606;BME280;46498;49.968;7.754;2023-01-30T06:29:59;97209.00;;;-0.19;100.00
28606;BME280;46498;49.968;7.754;2023-01-30T06:35:00;97209.00;;;-0.12;100.00
28606;BME280;46498;49.968;7.754;2023-01-30T06:40:01;97204.00;;;-0.15;100.00
28606;BME280;46498;49.968;7.754;2023-01-30T06:45:03;97200.00;;;-0.04;100.00
28606;BME280;46498;49.968;7.754;2023-01-30T06:50:04;97205.00;;;0.11;100.00
28606;BME280;46498;49.968;7.754;2023-01-30T06:55:06;97205.00;;;0.10;100.00
28606;BME280;46498;49.968;7.754;2023-01-30T07:00:10;97220.00;;;0.34;100.00
28606;BME280;46498;49.968;7.754;2023-01-30T07:05:12;97205.00;;;0.52;100.00
28606;BME280;46498;49.968;7.754;2023-01-30T07:10:14;97202.00;;;0.69;100.00
28606;BME280;46498;49.968;7.754;2023-01-30T07:15:15;97199.00;;;0.75;100.00
28606;BME280;46498;49.968;7.754;2023-01-30T07:20:16;97228.00;;;0.82;100.00
28606;BME280;46498;49.968;7.754;2023-01-30T07:25:21;97245.00;;;0.84;100.00
28606;BME280;46498;49.968;7.754;2023-01-30T07:30:23;97219.00;;;0.90;100.00
28606;BME280;46498;49.968;7.754;2023-01-30T07:35:27;97228.00;;;0.92;100.00
28606;BME280;46498;49.968;7.754;2023-01-30T07:40:28;97215.00;;;1.08;100.00
28606;BME280;46498;49.968;7.754;2023-01-30T07:45:43;97235.00;;;1.07;100.00
28606;BME280;46498;49.968;7.754;2023-01-30T07:50:45;97241.00;;;1.01;100.00
28606;BME280;46498;49.968;7.754;2023-01-30T07:55:46;97247.00;;;1.04;100.00
28606;BME280;46498;49.968;7.754;2023-01-30T08:00:47;97239.00;;;1.04;100.00
28606;BME280;46498;49.968;7.754;2023-01-30T08:05:48;97241.00;;;1.07;100.00
28606;BME280;46498;49.968;7.754;2023-01-30T08:10:50;97240.00;;;1.10;100.00
28606;BME280;46498;49.968;7.754;2023-01-30T08:15:50;97231.00;;;1.15;100.00
28606;BME280;46498;49.968;7.754;2023-01-30T08:20:56;97222.00;;;1.12;100.00
28606;BME280;46498;49.968;7.754;2023-01-30T08:25:58;97223.00;;;1.15;100.00
28606;BME280;46498;49.968;7.754;2023-01-30T08:30:59;97229.00;;;1.23;100.00
28606;BME280;46498;49.968;7.754;2023-01-30T08:36:00;97249.00;;;1.26;100.00
28606;BME280;46498;49.968;7.754;2023-01-30T08:41:04;97234.00;;;1.23;100.00
28606;BME280;46498;49.968;7.754;2023-01-30T08:46:05;97224.00;;;1.31;100.00
28606;BME280;46498;49.968;7.754;2023-01-30T08:51:06;97222.00;;;1.41;100.00
28606;BME280;46498;49.968;7.754;2023-01-30T08:56:07;97214.00;;;1.42;100.00
28606;BME280;46498;49.968;7.754;2023-01-30T09:01:08;97220.00;;;1.56;100.00
28606;BME280;46498;49.968;7.754;2023-01-30T09:06:09;97214.00;;;1.65;100.00
28606;BME280;46498;49.968;7.754;2023-01-30T09:11:10;97209.00;;;1.64;100.00
28606;BME280;46498;49.968;7.754;2023-01-30T09:16:12;97193.00;;;1.74;100.00
28606;BME280;46498;49.968;7.754;2023-01-30T09:21:13;97183.00;;;1.76;100.00
28606;BME280;46498;49.968;7.754;2023-01-30T09:26:14;97198.00;;;1.86;100.00
28606;BME280;46498;49.968;7.754;2023-01-30T09:31:15;97194.00;;;1.87;100.00
28606;BME280;46498;49.968;7.754;2023-01-30T09:36:16;97204.00;;;2.03;100.00
28606;BME280;46498;49.968;7.754;2023-01-30T09:43:59;97210.00;;;2.07;100.00
28606;BME280;46498;49.968;7.754;2023-01-30T09:54:33;97209.00;;;2.41;100.00
28606;BME280;46498;49.968;7.754;2023-01-30T09:59:53;97220.00;;;2.48;100.00
28606;BME280;46498;49.968;7.754;2023-01-30T10:04:55;97198.00;;;2.53;100.00
28606;BME280;46498;49.968;7.754;2023-01-30T10:10:52;97201.00;;;2.57;100.00
28606;BME280;46498;49.968;7.754;2023-01-30T10:16:18;97196.00;;;2.67;100.00
28606;BME280;46498;49.968;7.754;2023-01-30T10:34:48;97206.00;;;3.04;100.00
28606;BME280;46498;49.968;7.754;2023-01-30T10:40:43;97183.00;;;3.33;100.00
28606;BME280;46498;49.968;7.754;2023-01-30T10:46:15;97193.00;;;3.72;100.00
28606;BME280;46498;49.968;7.754;2023-01-30T10:52:16;97178.00;;;3.31;100.00
28606;BME280;46498;49.968;7.754;2023-01-30T10:58:15;97181.00;;;4.32;100.00
28606;BME280;46498;49.968;7.754;2023-01-30T11:03:49;97182.00;;;3.73;100.00
28606;BME280;46498;49.968;7.754;2023-01-30T11:08:53;97175.00;;;3.22;100.00
28606;BME280;46498;49.968;7.754;2023-01-30T11:14:06;97195.00;;;2.89;100.00
28606;BME280;46498;49.968;7.754;2023-01-30T11:19:08;97191.00;;;2.69;100.00
28606;BME280;46498;49.968;7.754;2023-01-30T11:24:23;97187.00;;;2.55;100.00
28606;BME280;46498;49.968;7.754;2023-01-30T11:29:31;97196.00;;;2.57;100.00
28606;BME280;46498;49.968;7.754;2023-01-30T11:34:32;97187.00;;;2.63;100.00
28606;BME280;46498;49.968;7.754;2023-01-30T11:39:34;97204.00;;;2.79;100.00
28606;BME280;46498;49.968;7.754;2023-01-30T11:44:36;97197.00;;;2.69;100.00
28606;BME280;46498;49.968;7.754;2023-01-30T11:49:47;97197.00;;;2.61;100.00
28606;BME280;46498;49.968;7.754;2023-01-30T11:56:40;97208.00;;;2.59;100.00
28606;BME280;46498;49.968;7.754;2023-01-30T12:01:47;97205.00;;;2.68;100.00
28606;BME280;46498;49.968;7.754;2023-01-30T12:07:04;97201.00;;;2.63;100.00
28606;BME280;46498;49.968;7.754;2023-01-30T12:12:31;97205.00;;;2.49;100.00
28606;BME280;46498;49.968;7.754;2023-01-30T12:22:46;97196.00;;;2.70;100.00
28606;BME280;46498;49.968;7.754;2023-01-30T12:28:32;97180.00;;;2.98;100.00
28606;BME280;46498;49.968;7.754;2023-01-30T12:33:35;97183.00;;;2.74;100.00
28606;BME280;46498;49.968;7.754;2023-01-30T12:56:28;97197.00;;;2.57;100.00
28606;BME280;46498;49.968;7.754;2023-01-30T13:03:02;97205.00;;;2.56;100.00
28606;BME280;46498;49.968;7.754;2023-01-30T13:08:38;97196.00;;;2.70;100.00
28606;BME280;46498;49.968;7.754;2023-01-30T13:13:52;97193.00;;;3.13;100.00
28606;BME280;46498;49.968;7.754;2023-01-30T13:19:16;97206.00;;;3.51;100.00
28606;BME280;46498;49.968;7.754;2023-01-30T13:24:47;97216.00;;;4.17;100.00
28606;BME280;46498;49.968;7.754;2023-01-30T13:29:52;97201.00;;;4.01;100.00
28606;BME280;46498;49.968;7.754;2023-01-30T13:34:54;97210.00;;;4.17;100.00
28606;BME280;46498;49.968;7.754;2023-01-30T13:40:02;97226.00;;;4.29;100.00
28606;BME280;46498;49.968;7.754;2023-01-30T13:45:05;97220.00;;;3.97;100.00
28606;BME280;46498;49.968;7.754;2023-01-30T13:50:40;97223.00;;;3.82;100.00
28606;BME280;46498;49.968;7.754;2023-01-30T13:55:57;97236.00;;;3.74;100.00
28606;BME280;46498;49.968;7.754;2023-01-30T14:01:02;97225.00;;;3.64;100.00
28606;BME280;46498;49.968;7.754;2023-01-30T14:06:07;97240.00;;;3.54;100.00
28606;BME280;46498;49.968;7.754;2023-01-30T14:13:04;97252.00;;;3.58;100.00
28606;BME280;46498;49.968;7.754;2023-01-30T14:18:21;97253.00;;;3.57;100.00
28606;BME280;46498;49.968;7.754;2023-01-30T14:23:33;97246.00;;;3.59;100.00
28606;BME280;46498;49.968;7.754;2023-01-30T14:28:43;97246.00;;;3.70;100.00
28606;BME280;46498;49.968;7.754;2023-01-30T14:33:49;97254.00;;;3.81;100.00
28606;BME280;46498;49.968;7.754;2023-01-30T14:39:36;97268.00;;;3.68;100.00
28606;BME280;46498;49.968;7.754;2023-01-30T14:45:00;97266.00;;;3.65;100.00
28606;BME280;46498;49.968;7.754;2023-01-30T14:50:01;97297.00;;;3.59;100.00
28606;BME280;46498;49.968;7.754;2023-01-30T14:55:03;97299.00;;;3.63;100.00
28606;BME280;46498;49.968;7.754;2023-01-30T15:00:14;97301.00;;;3.66;100.00
28606;BME280;46498;49.968;7.754;2023-01-30T15:05:32;97329.00;;;3.76;100.00
28606;BME280;46498;49.968;7.754;2023-01-30T15:11:00;97346.00;;;3.80;100.00
28606;BME280;46498;49.968;7.754;2023-01-30T15:17:03;97356.00;;;3.65;100.00
28606;BME280;46498;49.968;7.754;2023-01-30T15:22:24;97358.00;;;3.32;100.00
28606;BME280;46498;49.968;7.754;2023-01-30T15:28:05;97371.00;;;3.03;100.00
28606;BME280;46498;49.968;7.754;2023-01-30T15:33:18;97381.00;;;3.04;100.00
28606;BME280;46498;49.968;7.754;2023-01-30T15:38:32;97392.00;;;3.06;100.00
28606;BME280;46498;49.968;7.754;2023-01-30T15:43:37;97386.00;;;3.10;100.00
28606;BME280;46498;49.968;7.754;2023-01-30T15:49:17;97395.00;;;3.10;100.00
28606;BME280;46498;49.968;7.754;2023-01-30T15:54:23;97400.00;;;3.13;100.00
28606;BME280;46498;49.968;7.754;2023-01-30T16:04:39;97415.00;;;2.97;100.00
28606;BME280;46498;49.968;7.754;2023-01-30T16:09:40;97415.00;;;3.11;100.00
28606;BME280;46498;49.968;7.754;2023-01-30T16:14:45;97420.00;;;2.93;100.00
28606;BME280;46498;49.968;7.754;2023-01-30T16:19:46;97435.00;;;2.79;100.00
28606;BME280;46498;49.968;7.754;2023-01-30T16:24:51;97448.00;;;2.73;100.00
28606;BME280;46498;49.968;7.754;2023-01-30T16:29:57;97451.00;;;2.62;100.00
28606;BME280;46498;49.968;7.754;2023-01-30T16:35:28;97468.00;;;2.59;100.00
28606;BME280;46498;49.968;7.754;2023-01-30T16:40:44;97485.00;;;2.63;100.00
28606;BME280;46498;49.968;7.754;2023-01-30T16:47:22;97474.00;;;2.45;100.00
28606;BME280;46498;49.968;7.754;2023-01-30T16:52:45;97488.00;;;2.48;100.00
28606;BME280;46498;49.968;7.754;2023-01-30T16:57:59;97495.00;;;2.43;100.00
28606;BME280;46498;49.968;7.754;2023-01-30T17:03:05;97492.00;;;2.43;100.00
28606;BME280;46498;49.968;7.754;2023-01-30T17:08:52;97487.00;;;2.47;100.00
28606;BME280;46498;49.968;7.754;2023-01-30T17:14:17;97492.00;;;2.43;100.00
28606;BME280;46498;49.968;7.754;2023-01-30T17:19:19;97508.00;;;2.48;100.00
28606;BME280;46498;49.968;7.754;2023-01-30T17:24:23;97517.00;;;2.49;100.00
28606;BME280;46498;49.968;7.754;2023-01-30T17:29:25;97522.00;;;2.52;100.00
28606;BME280;46498;49.968;7.754;2023-01-30T17:34:42;97518.00;;;2.58;100.00
28606;BME280;46498;49.968;7.754;2023-01-30T17:39:43;97536.00;;;2.63;100.00
28606;BME280;46498;49.968;7.754;2023-01-30T17:44:44;97536.00;;;2.64;100.00
28606;BME280;46498;49.968;7.754;2023-01-30T17:49:45;97557.00;;;2.71;100.00
28606;BME280;46498;49.968;7.754;2023-01-30T17:54:46;97565.00;;;2.74;100.00
28606;BME280;46498;49.968;7.754;2023-01-30T17:59:47;97577.00;;;2.70;100.00
28606;BME280;46498;49.968;7.754;2023-01-30T18:04:48;97580.00;;;2.72;100.00
28606;BME280;46498;49.968;7.754;2023-01-30T18:09:48;97584.00;;;2.72;100.00
28606;BME280;46498;49.968;7.754;2023-01-30T18:14:49;97593.00;;;2.75;100.00
28606;BME280;46498;49.968;7.754;2023-01-30T18:19:50;97598.00;;;2.71;100.00
28606;BME280;46498;49.968;7.754;2023-01-30T18:24:51;97613.00;;;2.63;100.00
28606;BME280;46498;49.968;7.754;2023-01-30T18:29:52;97633.00;;;2.74;100.00
28606;BME280;46498;49.968;7.754;2023-01-30T18:34:52;97635.00;;;2.71;100.00
28606;BME280;46498;49.968;7.754;2023-01-30T18:39:53;97653.00;;;2.68;100.00
28606;BME280;46498;49.968;7.754;2023-01-30T18:44:54;97654.00;;;2.69;100.00
28606;BME280;46498;49.968;7.754;2023-01-30T18:49:55;97663.00;;;2.84;100.00
28606;BME280;46498;49.968;7.754;2023-01-30T18:54:56;97664.00;;;2.86;100.00
28606;BME280;46498;49.968;7.754;2023-01-30T18:59:57;97666.00;;;2.82;100.00
28606;BME280;46498;49.968;7.754;2023-01-30T19:04:58;97673.00;;;2.78;100.00
28606;BME280;46498;49.968;7.754;2023-01-30T19:09:58;97663.00;;;2.73;100.00
28606;BME280;46498;49.968;7.754;2023-01-30T19:14:59;97666.00;;;2.73;100.00
28606;BME280;46498;49.968;7.754;2023-01-30T19:20:01;97669.00;;;2.77;100.00
28606;BME280;46498;49.968;7.754;2023-01-30T19:25:05;97681.00;;;2.71;100.00
28606;BME280;46498;49.968;7.754;2023-01-30T19:30:07;97674.00;;;2.73;100.00
28606;BME280;46498;49.968;7.754;2023-01-30T19:35:08;97692.00;;;2.78;100.00
28606;BME280;46498;49.968;7.754;2023-01-30T19:40:10;97691.00;;;2.74;100.00
28606;BME280;46498;49.968;7.754;2023-01-30T19:45:11;97705.00;;;2.86;100.00
28606;BME280;46498;49.968;7.754;2023-01-30T19:50:12;97707.00;;;2.81;100.00
28606;BME280;46498;49.968;7.754;2023-01-30T19:55:14;97714.00;;;2.90;100.00
28606;BME280;46498;49.968;7.754;2023-01-30T20:00:18;97726.00;;;2.82;100.00
28606;BME280;46498;49.968;7.754;2023-01-30T20:05:21;97729.00;;;2.91;100.00
28606;BME280;46498;49.968;7.754;2023-01-30T20:10:22;97743.00;;;2.85;100.00
28606;BME280;46498;49.968;7.754;2023-01-30T20:15:22;97739.00;;;2.91;100.00
28606;BME280;46498;49.968;7.754;2023-01-30T20:20:23;97744.00;;;2.82;100.00
28606;BME280;46498;49.968;7.754;2023-01-30T20:25:24;97755.00;;;2.79;100.00
28606;BME280;46498;49.968;7.754;2023-01-30T20:30:25;97762.00;;;2.76;100.00
28606;BME280;46498;49.968;7.754;2023-01-30T20:35:26;97771.00;;;2.66;100.00
28606;BME280;46498;49.968;7.754;2023-01-30T20:40:26;97778.00;;;2.64;100.00
28606;BME280;46498;49.968;7.754;2023-01-30T20:45:27;97782.00;;;2.66;100.00
28606;BME280;46498;49.968;7.754;2023-01-30T20:50:28;97788.00;;;2.74;100.00
28606;BME280;46498;49.968;7.754;2023-01-30T20:55:29;97801.00;;;2.84;100.00
28606;BME280;46498;49.968;7.754;2023-01-30T21:00:30;97802.00;;;2.71;100.00
28606;BME280;46498;49.968;7.754;2023-01-30T21:05:30;97792.00;;;2.83;100.00
28606;BME280;46498;49.968;7.754;2023-01-30T21:10:35;97794.00;;;2.71;100.00
28606;BME280;46498;49.968;7.754;2023-01-30T21:15:36;97801.00;;;2.63;100.00
28606;BME280;46498;49.968;7.754;2023-01-30T21:20:37;97805.00;;;2.52;100.00
28606;BME280;46498;49.968;7.754;2023-01-30T21:25:38;97810.00;;;2.67;100.00
28606;BME280;46498;49.968;7.754;2023-01-30T21:30:39;97818.00;;;2.69;100.00
28606;BME280;46498;49.968;7.754;2023-01-30T21:35:41;97827.00;;;2.61;100.00
28606;BME280;46498;49.968;7.754;2023-01-30T21:40:51;97844.00;;;2.53;100.00
28606;BME280;46498;49.968;7.754;2023-01-30T21:46:13;97847.00;;;2.50;100.00
28606;BME280;46498;49.968;7.754;2023-01-30T21:51:16;97849.00;;;2.37;100.00
28606;BME280;46498;49.968;7.754;2023-01-30T21:56:17;97854.00;;;2.37;100.00
28606;BME280;46498;49.968;7.754;2023-01-30T22:01:17;97860.00;;;2.41;100.00
28606;BME280;46498;49.968;7.754;2023-01-30T22:06:19;97876.00;;;2.37;100.00
28606;BME280;46498;49.968;7.754;2023-01-30T22:11:20;97877.00;;;2.40;100.00
28606;BME280;46498;49.968;7.754;2023-01-30T22:16:24;97880.00;;;2.30;100.00
28606;BME280;46498;49.968;7.754;2023-01-30T22:21:27;97881.00;;;2.20;100.00
28606;BME280;46498;49.968;7.754;2023-01-30T22:26:28;97875.00;;;2.18;100.00
28606;BME280;46498;49.968;7.754;2023-01-30T22:31:34;97882.00;;;2.16;100.00
28606;BME280;46498;49.968;7.754;2023-01-30T22:36:35;97871.00;;;2.02;100.00
28606;BME280;46498;49.968;7.754;2023-01-30T22:41:37;97871.00;;;2.00;100.00
28606;BME280;46498;49.968;7.754;2023-01-30T22:46:39;97872.00;;;1.93;100.00
28606;BME280;46498;49.968;7.754;2023-01-30T22:51:40;97871.00;;;1.94;100.00
28606;BME280;46498;49.968;7.754;2023-01-30T22:56:44;97876.00;;;1.90;100.00
28606;BME280;46498;49.968;7.754;2023-01-30T23:01:47;97869.00;;;1.84;100.00
28606;BME280;46498;49.968;7.754;2023-01-30T23:06:50;97873.00;;;1.83;100.00
28606;BME280;46498;49.968;7.754;2023-01-30T23:11:54;97877.00;;;1.87;100.00
28606;BME280;46498;49.968;7.754;2023-01-30T23:17:15;97868.00;;;1.68;100.00
28606;BME280;46498;49.968;7.754;2023-01-30T23:22:34;97874.00;;;1.73;100.00
28606;BME280;46498;49.968;7.754;2023-01-30T23:27:35;97865.00;;;1.66;100.00
28606;BME280;46498;49.968;7.754;2023-01-30T23:32:37;97870.00;;;1.62;100.00
28606;BME280;46498;49.968;7.754;2023-01-30T23:37:38;97871.00;;;1.60;100.00
28606;BME280;46498;49.968;7.754;2023-01-30T23:42:57;97868.00;;;1.51;100.00
28606;BME280;46498;49.968;7.754;2023-01-30T23:47:58;97867.00;;;1.53;100.00
28606;BME280;46498;49.968;7.754;2023-01-30T23:52:59;97868.00;;;1.47;100.00
28606;BME280;46498;49.968;7.754;2023-01-30T23:58:00;97863.00;;;1.52;100.00
